Daneborg

KL  EN  DA
ASIAQ
Weather Now GREENLAND SURVEY
Updated [WGT/WGST] Temperature [°C] Wind [m/s] Air pressure [hPa] Relative humidity [%] Precipitation [mm]
Present Wind chill Speed Max
19.10 00:00-7,7-12,32,6 ⇓3,6101072n/a
18.10 23:00-8,6-12,62,1 ⇓3,1101172n/a
18.10 22:00-8,20,01,0 ⇓1,0101172n/a
18.10 21:00-7,80,01,0 ⇖1,5101270n/a
18.10 20:00-8,10,01,0 ⇖2,1101370n/a
18.10 19:00-8,4-11,31,5 ⇓2,6101368n/a
18.10 18:00-8,1-11,01,5 ⇙2,1101467n/a
18.10 17:00-8,30,00,5 ⇐1,0101470n/a
18.10 16:00-7,80,00,5 ⇖0,5101571n/a
18.10 15:00-8,20,01,0 ⇖1,5101573n/a
18.10 14:00-7,40,00,5 ⇒1,0101570n/a
18.10 13:00-6,70,00,5 ⇐0,5101658n/a
18.10 12:00-6,5-9,21,5 ⇓2,1101655n/a
18.10 11:00-6,10,00,5 ⇖1,0101758n/a
18.10 10:00-7,70,01,0 ⇐1,5101764n/a
18.10 09:00-7,50,01,0 ⇖1,0101764n/a
18.10 08:00-7,9-10,81,5 ⇙2,6101757n/a
18.10 07:00-7,50,00,0 ⇓0,5101756n/a
18.10 06:00-7,1-10,92,1 ⇓3,1101748n/a
18.10 05:00-7,8-10,61,5 ⇓2,6101757n/a
18.10 04:00-6,6-12,54,1 ⇓6,2101755n/a
18.10 03:00-6,0-12,55,1 ⇘7,7101759n/a
18.10 02:00-5,7-11,44,1 ⇒5,1101757n/a
18.10 01:00-6,6-12,54,1 ⇓5,7101741n/a
18.10 00:00-6,0-13,26,2 ⇓8,8101745n/a
Position: (74.3075,-20.21694444)

[Back]